createdAt,value
2023-01-28T00:00:37.738Z,0
2023-01-28T00:01:38.336Z,0
2023-01-28T00:02:38.945Z,0
2023-01-28T00:03:39.552Z,0
2023-01-28T00:04:40.149Z,0
2023-01-28T00:05:40.740Z,0
2023-01-28T00:06:41.343Z,0
2023-01-28T00:07:41.931Z,0
2023-01-28T00:08:42.549Z,0
2023-01-28T00:09:43.156Z,0
2023-01-28T00:10:43.753Z,0
2023-01-28T00:11:44.356Z,0
2023-01-28T00:12:45.071Z,0
2023-01-28T00:13:45.673Z,0
2023-01-28T00:14:46.277Z,0
2023-01-28T00:15:47.769Z,0
2023-01-28T00:16:48.426Z,0
2023-01-28T00:17:49.014Z,0
2023-01-28T00:18:49.616Z,0
2023-01-28T00:19:50.366Z,0
2023-01-28T00:20:50.972Z,0
2023-01-28T00:21:51.572Z,0
2023-01-28T00:22:52.342Z,0
2023-01-28T00:23:53.024Z,0
2023-01-28T00:24:53.641Z,0
2023-01-28T00:25:54.233Z,0
2023-01-28T00:26:54.831Z,0
2023-01-28T00:27:55.424Z,0
2023-01-28T00:28:56.034Z,0
2023-01-28T00:29:56.677Z,0
2023-01-28T00:30:57.411Z,0
2023-01-28T00:31:58.137Z,0
2023-01-28T00:32:59.581Z,0
2023-01-28T00:34:00.237Z,0
2023-01-28T00:35:00.838Z,0
2023-01-28T00:36:01.458Z,0
2023-01-28T00:37:02.049Z,0
2023-01-28T00:38:02.650Z,0
2023-01-28T00:39:03.253Z,0
2023-01-28T00:40:04.651Z,0
2023-01-28T00:41:05.254Z,0
2023-01-28T00:42:05.907Z,0
2023-01-28T00:43:06.512Z,0
2023-01-28T00:44:07.100Z,0
2023-01-28T00:45:07.705Z,0
2023-01-28T00:46:08.344Z,0
2023-01-28T00:47:08.928Z,0
2023-01-28T00:48:09.531Z,0
2023-01-28T00:49:10.130Z,0
2023-01-28T00:50:10.815Z,0
2023-01-28T00:51:11.482Z,0
2023-01-28T00:52:12.083Z,0
2023-01-28T00:53:12.741Z,0
2023-01-28T00:54:13.342Z,0
2023-01-28T00:55:14.195Z,0
2023-01-28T00:56:14.907Z,0
2023-01-28T00:57:15.656Z,0
2023-01-28T00:58:16.254Z,0
2023-01-28T00:59:16.847Z,0
2023-01-28T01:00:17.451Z,0
2023-01-28T01:01:18.075Z,0
2023-01-28T01:02:18.709Z,0
2023-01-28T01:03:19.304Z,0
2023-01-28T01:04:19.901Z,0
2023-01-28T01:05:20.498Z,0
2023-01-28T01:06:21.101Z,0
2023-01-28T01:07:21.694Z,0
2023-01-28T01:08:22.296Z,0
2023-01-28T01:09:22.895Z,0
2023-01-28T01:10:23.506Z,0
2023-01-28T01:11:24.090Z,0
2023-01-28T01:12:24.684Z,0
2023-01-28T01:13:25.287Z,0
2023-01-28T01:14:25.889Z,0
2023-01-28T01:15:26.484Z,0
2023-01-28T01:16:27.079Z,0
2023-01-28T01:17:27.672Z,0
2023-01-28T01:18:28.266Z,0
2023-01-28T01:19:28.855Z,0
2023-01-28T01:20:29.459Z,0
2023-01-28T01:21:30.075Z,0
2023-01-28T01:22:30.658Z,0
2023-01-28T01:23:31.279Z,0
2023-01-28T01:24:31.951Z,0
2023-01-28T01:25:32.606Z,0
2023-01-28T01:26:33.214Z,0
2023-01-28T01:27:33.820Z,0
2023-01-28T01:28:34.405Z,0
2023-01-28T01:29:35.001Z,0
2023-01-28T01:30:35.720Z,0
2023-01-28T01:31:37.213Z,0
2023-01-28T01:32:37.990Z,0
2023-01-28T01:33:38.583Z,0
2023-01-28T01:34:39.184Z,0
2023-01-28T01:35:39.787Z,0
2023-01-28T01:36:40.435Z,0
2023-01-28T01:37:41.031Z,0
2023-01-28T01:38:41.684Z,0
2023-01-28T01:39:42.361Z,0
2023-01-28T01:40:42.958Z,0
2023-01-28T01:41:43.563Z,0
2023-01-28T01:42:44.167Z,0
2023-01-28T01:43:44.760Z,0
2023-01-28T01:44:45.383Z,0
2023-01-28T01:45:46.051Z,0
2023-01-28T01:46:46.679Z,0
2023-01-28T01:47:47.319Z,0
2023-01-28T01:48:47.920Z,0
2023-01-28T01:49:48.511Z,0
2023-01-28T01:50:49.109Z,0
2023-01-28T01:51:49.713Z,0
2023-01-28T01:52:50.357Z,0
2023-01-28T01:53:50.962Z,0
2023-01-28T01:54:51.622Z,0
2023-01-28T01:55:52.224Z,0
2023-01-28T01:56:52.821Z,0
2023-01-28T01:57:53.442Z,0
2023-01-28T02:00:09.445Z,0
2023-01-28T02:01:10.029Z,0
2023-01-28T02:02:10.652Z,0
2023-01-28T02:03:11.370Z,0
2023-01-28T02:04:11.985Z,0
2023-01-28T02:05:13.239Z,0
2023-01-28T02:06:14.117Z,0
2023-01-28T02:07:14.766Z,0
2023-01-28T02:08:15.353Z,0
2023-01-28T02:09:15.949Z,0
2023-01-28T02:10:16.537Z,0
2023-01-28T02:11:17.120Z,0
2023-01-28T02:12:17.713Z,0
2023-01-28T02:13:18.356Z,0
2023-01-28T02:14:30.535Z,0
2023-01-28T02:15:20.533Z,0
2023-01-28T02:16:21.148Z,0
2023-01-28T02:17:21.722Z,0
2023-01-28T02:18:22.316Z,0
2023-01-28T02:19:22.907Z,0
2023-01-28T02:20:23.492Z,0
2023-01-28T02:21:24.093Z,0
2023-01-28T02:22:24.750Z,0
2023-01-28T02:23:25.398Z,0
2023-01-28T02:24:26.009Z,0
2023-01-28T02:25:26.605Z,0
2023-01-28T02:26:27.207Z,0
2023-01-28T02:27:27.781Z,0
2023-01-28T02:28:28.376Z,0
2023-01-28T02:29:28.971Z,0
2023-01-28T02:30:29.643Z,0
2023-01-28T02:31:30.390Z,0
2023-01-28T02:32:31.079Z,0
2023-01-28T02:33:31.655Z,0
2023-01-28T02:34:32.263Z,0
2023-01-28T02:35:32.856Z,0
2023-01-28T02:36:33.476Z,0
2023-01-28T02:37:34.042Z,0
2023-01-28T02:38:34.629Z,0
2023-01-28T02:39:35.222Z,0
2023-01-28T02:40:35.820Z,0
2023-01-28T02:41:36.459Z,0
2023-01-28T02:42:37.095Z,0
2023-01-28T02:43:37.764Z,0
2023-01-28T02:44:38.437Z,0
2023-01-28T02:45:39.043Z,0
2023-01-28T02:46:39.638Z,0
2023-01-28T02:47:40.273Z,0
2023-01-28T02:48:40.883Z,0
2023-01-28T02:49:41.474Z,0
2023-01-28T02:50:42.075Z,0
2023-01-28T02:51:42.683Z,0
2023-01-28T02:52:43.334Z,0
2023-01-28T02:53:44.041Z,0
2023-01-28T02:55:45.268Z,0
2023-01-28T02:56:45.842Z,0
2023-01-28T02:57:46.444Z,0
2023-01-28T02:58:47.104Z,0
2023-01-28T02:59:47.704Z,0
2023-01-28T03:00:48.281Z,0
2023-01-28T03:01:48.935Z,0
2023-01-28T03:02:49.577Z,0
2023-01-28T03:03:50.186Z,0
2023-01-28T03:05:04.283Z,0
2023-01-28T03:06:04.878Z,0
2023-01-28T03:07:05.475Z,0
2023-01-28T03:08:06.067Z,0
2023-01-28T03:09:06.663Z,0
2023-01-28T03:11:17.293Z,0
2023-01-28T03:12:17.881Z,0
2023-01-28T03:13:18.473Z,0
2023-01-28T03:14:19.079Z,0
2023-01-28T03:15:19.676Z,0
2023-01-28T03:16:20.267Z,0
2023-01-28T03:17:20.864Z,0
2023-01-28T03:18:21.479Z,0
2023-01-28T03:19:22.071Z,0
2023-01-28T03:20:23.480Z,0
2023-01-28T03:21:24.146Z,0
2023-01-28T03:22:24.737Z,0
2023-01-28T03:23:45.905Z,0
2023-01-28T03:24:46.504Z,0
2023-01-28T03:25:47.110Z,0
2023-01-28T03:26:47.699Z,0
2023-01-28T03:27:48.294Z,0
2023-01-28T03:28:48.906Z,0
2023-01-28T03:29:49.503Z,0
2023-01-28T03:30:50.140Z,0
2023-01-28T03:31:50.774Z,0
2023-01-28T03:32:51.363Z,0
2023-01-28T03:33:51.964Z,0
2023-01-28T03:34:52.565Z,0
2023-01-28T03:35:53.156Z,0
2023-01-28T03:36:53.748Z,0
2023-01-28T03:37:54.340Z,0
2023-01-28T03:38:54.950Z,0
2023-01-28T03:39:55.533Z,0
2023-01-28T03:40:56.128Z,0
2023-01-28T03:41:56.731Z,0
2023-01-28T03:42:57.324Z,0
2023-01-28T03:43:57.918Z,0
2023-01-28T03:44:58.520Z,0
2023-01-28T03:45:59.178Z,0
2023-01-28T03:46:59.774Z,0
2023-01-28T03:48:00.361Z,0
2023-01-28T03:49:01.813Z,0
2023-01-28T03:50:02.414Z,0
2023-01-28T03:51:03.073Z,0
2023-01-28T03:52:03.714Z,0
2023-01-28T03:53:04.308Z,0
2023-01-28T03:54:04.907Z,0
2023-01-28T03:55:05.513Z,0
2023-01-28T03:56:06.149Z,0
2023-01-28T03:57:06.743Z,0
2023-01-28T03:58:07.343Z,0
2023-01-28T03:59:08.084Z,0
2023-01-28T04:00:08.736Z,0
2023-01-28T04:01:09.335Z,0
2023-01-28T04:02:09.927Z,0
2023-01-28T04:03:10.558Z,0
2023-01-28T04:04:11.971Z,0
2023-01-28T04:05:13.029Z,0
2023-01-28T04:06:13.246Z,0
2023-01-28T04:07:13.909Z,0
2023-01-28T04:08:14.517Z,0
2023-01-28T04:09:15.103Z,0
2023-01-28T04:10:15.702Z,0
2023-01-28T04:11:16.313Z,0
2023-01-28T04:12:16.908Z,0
2023-01-28T04:13:17.494Z,0
2023-01-28T04:14:18.094Z,0
2023-01-28T04:15:18.741Z,0
2023-01-28T04:16:19.367Z,0
2023-01-28T04:17:19.962Z,0
2023-01-28T04:18:21.413Z,0
2023-01-28T04:19:22.005Z,0
2023-01-28T04:20:22.605Z,0
2023-01-28T04:21:23.207Z,0
2023-01-28T04:22:23.801Z,0
2023-01-28T04:23:24.400Z,0
2023-01-28T04:24:25.118Z,0
2023-01-28T04:25:25.736Z,0
2023-01-28T04:26:26.328Z,0
2023-01-28T04:27:26.929Z,0
2023-01-28T04:28:27.527Z,0
2023-01-28T04:29:28.126Z,0
2023-01-28T04:30:28.776Z,0
2023-01-28T04:31:29.410Z,0
2023-01-28T04:32:30.055Z,0
2023-01-28T04:33:30.660Z,0
2023-01-28T04:34:31.245Z,0
2023-01-28T04:35:31.838Z,0
2023-01-28T04:36:32.434Z,0
2023-01-28T04:37:33.041Z,0
2023-01-28T04:38:33.677Z,0
2023-01-28T04:39:34.274Z,0
2023-01-28T04:40:34.870Z,0
2023-01-28T04:41:35.456Z,0
2023-01-28T04:42:36.050Z,0
2023-01-28T04:43:36.650Z,0
2023-01-28T04:44:37.244Z,0
2023-01-28T04:45:37.847Z,0
2023-01-28T04:46:38.496Z,0
2023-01-28T04:47:39.129Z,0
2023-01-28T04:48:39.722Z,0
2023-01-28T04:49:40.381Z,0
2023-01-28T04:50:40.972Z,0
2023-01-28T04:51:41.567Z,0
2023-01-28T04:52:42.379Z,0
2023-01-28T04:53:43.028Z,0
2023-01-28T04:54:43.642Z,0
2023-01-28T04:55:44.311Z,0
2023-01-28T04:56:44.893Z,0
2023-01-28T04:57:45.509Z,0
2023-01-28T04:58:46.103Z,0
2023-01-28T04:59:46.753Z,0
2023-01-28T05:00:47.365Z,0
2023-01-28T05:01:48.172Z,0
2023-01-28T05:02:48.771Z,0
2023-01-28T05:03:49.364Z,0
2023-01-28T05:04:49.973Z,0
2023-01-28T05:05:50.567Z,0
2023-01-28T05:06:51.162Z,0
2023-01-28T05:07:52.566Z,0
2023-01-28T05:08:53.152Z,0
2023-01-28T05:09:53.800Z,0
2023-01-28T05:10:54.390Z,0
2023-01-28T05:11:54.988Z,0
2023-01-28T05:12:55.596Z,0
2023-01-28T05:13:56.259Z,0
2023-01-28T05:14:56.864Z,0
2023-01-28T05:15:57.459Z,0
2023-01-28T05:16:58.082Z,0
2023-01-28T05:17:58.726Z,0
2023-01-28T05:18:59.383Z,0
2023-01-28T05:19:59.956Z,0
2023-01-28T05:21:00.598Z,0
2023-01-28T05:22:01.199Z,0
2023-01-28T05:23:01.793Z,0
2023-01-28T05:24:02.443Z,0
2023-01-28T05:25:03.073Z,0
2023-01-28T05:26:03.674Z,0
2023-01-28T05:27:04.266Z,0
2023-01-28T05:28:04.866Z,0
2023-01-28T05:29:05.459Z,0
2023-01-28T05:30:06.060Z,0
2023-01-28T05:31:06.722Z,0
2023-01-28T05:32:07.420Z,0
2023-01-28T05:33:08.085Z,0
2023-01-28T05:34:08.716Z,0
2023-01-28T05:35:09.303Z,0
2023-01-28T05:36:09.915Z,0
2023-01-28T05:37:10.501Z,0
2023-01-28T05:38:11.458Z,0
2023-01-28T05:39:12.740Z,0
2023-01-28T05:40:13.705Z,0
2023-01-28T05:41:14.487Z,0
2023-01-28T05:42:15.085Z,0
2023-01-28T05:43:15.679Z,0
2023-01-28T05:44:16.275Z,0
2023-01-28T05:45:17.180Z,0
2023-01-28T05:46:17.939Z,0
2023-01-28T05:47:18.542Z,0
2023-01-28T05:48:19.162Z,0
2023-01-28T05:49:19.736Z,0
2023-01-28T05:50:20.331Z,0
2023-01-28T05:51:20.920Z,0
2023-01-28T05:52:21.515Z,0
2023-01-28T05:53:22.113Z,0
2023-01-28T05:54:22.708Z,0
2023-01-28T05:55:23.321Z,0
2023-01-28T05:56:23.899Z,0
2023-01-28T05:57:25.351Z,0
2023-01-28T05:58:25.951Z,0
2023-01-28T05:59:26.545Z,0
2023-01-28T06:00:27.135Z,0
2023-01-28T06:01:27.757Z,0
2023-01-28T06:02:28.373Z,0
2023-01-28T06:03:28.966Z,0
2023-01-28T06:04:29.567Z,0
2023-01-28T06:05:30.307Z,0
2023-01-28T06:06:30.906Z,0
2023-01-28T06:07:31.506Z,0
2023-01-28T06:08:32.098Z,0
2023-01-28T06:09:32.748Z,0
2023-01-28T06:10:33.349Z,0
2023-01-28T06:11:33.960Z,0
2023-01-28T06:12:34.550Z,0
2023-01-28T06:13:35.164Z,0
2023-01-28T06:14:35.745Z,0
2023-01-28T06:15:36.366Z,0
2023-01-28T06:16:36.981Z,0
2023-01-28T06:17:37.628Z,0
2023-01-28T06:18:38.230Z,0
2023-01-28T06:19:38.831Z,0
2023-01-28T06:20:39.432Z,0
2023-01-28T06:21:40.181Z,0
2023-01-28T06:22:40.783Z,0
2023-01-28T06:23:41.383Z,0
2023-01-28T06:24:41.975Z,0
2023-01-28T06:25:42.721Z,0
2023-01-28T06:26:43.308Z,0
2023-01-28T06:27:43.918Z,0
2023-01-28T06:28:44.501Z,0
2023-01-28T06:29:45.110Z,0
2023-01-28T06:30:46.636Z,0
2023-01-28T06:31:48.102Z,0
2023-01-28T06:32:48.703Z,0
2023-01-28T06:33:50.155Z,0
2023-01-28T06:34:50.751Z,0
2023-01-28T06:35:51.405Z,0
2023-01-28T06:36:52.002Z,0
2023-01-28T06:37:52.604Z,0
2023-01-28T06:38:53.260Z,0
2023-01-28T06:39:53.849Z,0
2023-01-28T06:40:54.443Z,0
2023-01-28T06:41:55.092Z,0
2023-01-28T06:42:55.684Z,0
2023-01-28T06:43:56.277Z,0
2023-01-28T06:44:56.875Z,0
2023-01-28T06:45:57.469Z,0
2023-01-28T06:46:58.060Z,0
2023-01-28T06:47:58.661Z,0
2023-01-28T06:48:59.262Z,0
2023-01-28T06:49:59.857Z,0
2023-01-28T06:51:00.517Z,0
2023-01-28T06:52:01.175Z,0
2023-01-28T06:53:01.771Z,0
2023-01-28T06:54:02.390Z,0
2023-01-28T06:55:02.978Z,0
2023-01-28T06:56:03.577Z,0
2023-01-28T06:57:04.172Z,0
2023-01-28T06:58:04.768Z,0
2023-01-28T06:59:05.362Z,0
2023-01-28T07:00:05.953Z,0
2023-01-28T07:01:06.554Z,0
2023-01-28T07:02:07.195Z,0
2023-01-28T07:03:07.920Z,0
2023-01-28T07:04:08.542Z,0
2023-01-28T07:05:09.135Z,0
2023-01-28T07:06:09.735Z,0
2023-01-28T07:07:10.335Z,0
2023-01-28T07:08:10.936Z,0
2023-01-28T07:09:11.528Z,0
2023-01-28T07:10:12.135Z,0
2023-01-28T07:11:12.722Z,0
2023-01-28T07:12:13.317Z,0
2023-01-28T07:13:13.910Z,0
2023-01-28T07:14:14.516Z,0
2023-01-28T07:15:15.174Z,0
2023-01-28T07:16:15.846Z,0
2023-01-28T07:17:16.467Z,0
2023-01-28T07:18:17.115Z,0
2023-01-28T07:19:17.705Z,0
2023-01-28T07:20:18.599Z,0
2023-01-28T07:21:19.357Z,0
2023-01-28T07:22:19.960Z,0
2023-01-28T07:23:20.552Z,0
2023-01-28T07:24:21.197Z,0
2023-01-28T07:25:21.805Z,0
2023-01-28T07:26:22.398Z,0
2023-01-28T07:27:23.047Z,0
2023-01-28T07:28:23.700Z,0
2023-01-28T07:29:24.321Z,0
2023-01-28T07:30:24.964Z,0
2023-01-28T07:31:25.681Z,0
2023-01-28T07:32:26.365Z,0
2023-01-28T07:33:26.957Z,0
2023-01-28T07:34:27.631Z,0
2023-01-28T07:35:28.343Z,0
2023-01-28T07:36:28.932Z,0
2023-01-28T07:37:29.585Z,0
2023-01-28T07:38:30.175Z,0
2023-01-28T07:39:30.780Z,0
2023-01-28T07:40:31.385Z,0
2023-01-28T07:41:31.972Z,0
2023-01-28T07:42:32.562Z,0
2023-01-28T07:43:33.201Z,4
2023-01-28T07:44:33.808Z,0
2023-01-28T07:45:34.445Z,0
2023-01-28T07:46:35.034Z,0
2023-01-28T07:47:35.711Z,0
2023-01-28T07:48:36.370Z,0
2023-01-28T07:49:36.984Z,4
2023-01-28T07:50:37.566Z,4
2023-01-28T07:51:38.159Z,4
2023-01-28T07:52:38.752Z,4
2023-01-28T07:53:39.349Z,4
2023-01-28T07:54:40.001Z,4
2023-01-28T07:55:40.604Z,4
2023-01-28T07:56:41.194Z,4
2023-01-28T07:57:41.792Z,4
2023-01-28T07:58:42.397Z,4
2023-01-28T07:59:42.992Z,4
2023-01-28T08:00:43.587Z,4
2023-01-28T08:01:44.244Z,4
2023-01-28T08:02:44.869Z,4
2023-01-28T08:03:45.464Z,4
2023-01-28T08:04:46.226Z,4
2023-01-28T08:05:46.875Z,4
2023-01-28T08:06:47.462Z,4
2023-01-28T08:07:48.061Z,4
2023-01-28T08:08:48.670Z,4
2023-01-28T08:09:49.275Z,4
2023-01-28T08:10:49.848Z,0
2023-01-28T08:11:50.517Z,0
2023-01-28T08:12:51.112Z,0
2023-01-28T08:13:51.711Z,0
2023-01-28T08:14:52.302Z,0
2023-01-28T08:15:52.933Z,0
2023-01-28T08:16:53.512Z,0
2023-01-28T08:17:54.113Z,0
2023-01-28T08:18:54.704Z,0
2023-01-28T08:19:55.301Z,0
2023-01-28T08:20:55.891Z,0
2023-01-28T08:21:56.501Z,0
2023-01-28T08:22:57.092Z,0
2023-01-28T08:23:57.741Z,0
2023-01-28T08:24:58.374Z,0
2023-01-28T08:25:58.994Z,4
2023-01-28T08:26:59.573Z,4
2023-01-28T08:28:00.169Z,4
2023-01-28T08:29:00.764Z,4
2023-01-28T08:30:01.364Z,8
2023-01-28T08:31:02.155Z,8
2023-01-28T08:32:02.826Z,4
2023-01-28T08:33:03.463Z,4
2023-01-28T08:34:04.064Z,4
2023-01-28T08:35:04.732Z,4
2023-01-28T08:36:05.343Z,4
2023-01-28T08:37:05.932Z,8
2023-01-28T08:38:06.513Z,8
2023-01-28T08:39:07.972Z,8
2023-01-28T08:40:08.553Z,8
2023-01-28T08:41:09.157Z,8
2023-01-28T08:42:09.746Z,4
2023-01-28T08:43:10.346Z,4
2023-01-28T08:44:10.945Z,8
2023-01-28T08:45:11.548Z,8
2023-01-28T08:46:12.200Z,8
2023-01-28T08:47:12.819Z,8
2023-01-28T08:48:13.428Z,8
2023-01-28T08:49:14.229Z,12
2023-01-28T08:50:15.190Z,8
2023-01-28T08:51:15.999Z,8
2023-01-28T08:52:16.599Z,8
2023-01-28T08:53:17.199Z,8
2023-01-28T08:54:17.789Z,8
2023-01-28T08:55:18.380Z,12
2023-01-28T08:56:19.125Z,12
2023-01-28T08:57:19.716Z,12
2023-01-28T08:58:20.325Z,8
2023-01-28T08:59:20.912Z,8
2023-01-28T09:00:21.505Z,8
2023-01-28T09:01:22.170Z,8
2023-01-28T09:02:31.498Z,8
2023-01-28T09:03:24.416Z,12
2023-01-28T09:04:25.012Z,12
2023-01-28T09:05:25.604Z,12
2023-01-28T09:06:26.196Z,12
2023-01-28T09:07:26.795Z,12
2023-01-28T09:08:27.382Z,12
2023-01-28T09:09:27.975Z,12
2023-01-28T09:10:28.578Z,12
2023-01-28T09:11:29.180Z,12
2023-01-28T09:12:29.771Z,8
2023-01-28T09:13:30.376Z,8
2023-01-28T09:14:30.999Z,12
2023-01-28T09:15:31.593Z,12
2023-01-28T09:16:32.183Z,12
2023-01-28T09:17:32.788Z,12
2023-01-28T09:18:33.387Z,12
2023-01-28T09:19:33.980Z,12
2023-01-28T09:20:34.575Z,12
2023-01-28T09:21:35.174Z,12
2023-01-28T09:22:35.791Z,12
2023-01-28T09:23:36.382Z,12
2023-01-28T09:24:38.900Z,16
2023-01-28T09:25:38.577Z,16
2023-01-28T09:26:39.170Z,12
2023-01-28T09:27:39.767Z,12
2023-01-28T09:28:40.357Z,12
2023-01-28T09:29:40.960Z,12
2023-01-28T09:30:41.607Z,12
2023-01-28T09:31:42.275Z,12
2023-01-28T09:32:42.856Z,12
2023-01-28T09:33:43.506Z,12
2023-01-28T09:34:44.099Z,12
2023-01-28T09:35:44.850Z,12
2023-01-28T09:36:45.514Z,12
2023-01-28T09:37:46.119Z,16
2023-01-28T09:38:46.716Z,16
2023-01-28T09:39:47.306Z,16
2023-01-28T09:40:47.900Z,16
2023-01-28T09:41:48.500Z,16
2023-01-28T09:42:49.099Z,16
2023-01-28T09:43:49.709Z,16
2023-01-28T09:44:50.351Z,12
2023-01-28T09:45:50.958Z,12
2023-01-28T09:46:51.583Z,16
2023-01-28T09:47:52.172Z,16
2023-01-28T09:48:52.781Z,16
2023-01-28T09:49:53.435Z,16
2023-01-28T09:50:54.091Z,16
2023-01-28T09:51:54.694Z,16
2023-01-28T09:52:55.282Z,16
2023-01-28T09:53:55.888Z,16
2023-01-28T09:54:56.484Z,16
2023-01-28T09:55:57.093Z,16
2023-01-28T09:56:57.673Z,16
2023-01-28T09:57:58.278Z,16
2023-01-28T09:58:58.949Z,16
2023-01-28T09:59:59.557Z,20
2023-01-28T10:01:00.205Z,16
2023-01-28T10:02:00.790Z,16
2023-01-28T10:03:01.504Z,20
2023-01-28T10:04:02.223Z,20
2023-01-28T10:05:02.840Z,16
2023-01-28T10:06:03.493Z,20
2023-01-28T10:07:04.096Z,20
2023-01-28T10:08:04.694Z,20
2023-01-28T10:09:05.296Z,20
2023-01-28T10:10:05.908Z,24
2023-01-28T10:11:06.499Z,20
2023-01-28T10:12:07.093Z,24
2023-01-28T10:13:07.694Z,24
2023-01-28T10:14:08.289Z,24
2023-01-28T10:15:08.892Z,24
2023-01-28T10:16:09.552Z,24
2023-01-28T10:17:10.238Z,24
2023-01-28T10:18:16.920Z,24
2023-01-28T10:19:12.429Z,20
2023-01-28T10:20:13.409Z,24
2023-01-28T10:21:14.227Z,24
2023-01-28T10:22:14.830Z,28
2023-01-28T10:23:15.420Z,24
2023-01-28T10:24:16.068Z,28
2023-01-28T10:25:16.663Z,28
2023-01-28T10:26:17.262Z,24
2023-01-28T10:27:17.861Z,28
2023-01-28T10:28:18.454Z,28
2023-01-28T10:29:19.057Z,24
2023-01-28T10:30:19.659Z,24
2023-01-28T10:31:20.266Z,24
2023-01-28T10:32:20.922Z,24
2023-01-28T10:33:21.521Z,28
2023-01-28T10:34:22.125Z,24
2023-01-28T10:35:22.735Z,24
2023-01-28T10:36:23.368Z,24
2023-01-28T10:37:23.973Z,28
2023-01-28T10:38:24.581Z,24
2023-01-28T10:39:25.186Z,28
2023-01-28T10:40:25.850Z,28
2023-01-28T10:41:26.442Z,28
2023-01-28T10:42:27.041Z,28
2023-01-28T10:43:27.630Z,28
2023-01-28T10:44:28.230Z,28
2023-01-28T10:45:28.833Z,28
2023-01-28T10:46:29.430Z,28
2023-01-28T10:47:30.963Z,32
2023-01-28T10:48:30.690Z,32
2023-01-28T10:49:31.330Z,32
2023-01-28T10:50:31.970Z,28
2023-01-28T10:51:32.571Z,32
2023-01-28T10:52:33.223Z,32
2023-01-28T10:53:33.826Z,32
2023-01-28T10:54:34.436Z,32
2023-01-28T10:55:35.019Z,32
2023-01-28T10:56:35.633Z,36
2023-01-28T10:57:36.283Z,32
2023-01-28T10:58:36.939Z,32
2023-01-28T10:59:37.552Z,32
2023-01-28T11:00:38.148Z,32
2023-01-28T11:01:38.744Z,32
2023-01-28T11:02:39.384Z,32
2023-01-28T11:03:40.013Z,32
2023-01-28T11:04:40.612Z,28
2023-01-28T11:05:41.274Z,28
2023-01-28T11:06:42.024Z,32
2023-01-28T11:07:42.621Z,28
2023-01-28T11:08:43.212Z,28
2023-01-28T11:09:43.822Z,32
2023-01-28T11:10:44.423Z,28
2023-01-28T11:11:45.021Z,28
2023-01-28T11:12:45.622Z,32
2023-01-28T11:13:46.214Z,28
2023-01-28T11:14:46.808Z,32
2023-01-28T11:15:47.404Z,28
2023-01-28T11:16:48.004Z,24
2023-01-28T11:17:49.418Z,28
2023-01-28T11:18:50.014Z,28
2023-01-28T11:19:50.616Z,24
2023-01-28T11:20:51.284Z,24
2023-01-28T11:21:51.876Z,24
2023-01-28T11:22:52.475Z,28
2023-01-28T11:23:53.284Z,28
2023-01-28T11:24:53.899Z,28
2023-01-28T11:25:54.636Z,24
2023-01-28T11:26:55.229Z,24
2023-01-28T11:27:55.830Z,20
2023-01-28T11:28:56.495Z,16
2023-01-28T11:29:57.082Z,20
2023-01-28T11:30:57.693Z,16
2023-01-28T11:31:58.349Z,16
2023-01-28T11:32:58.969Z,16
2023-01-28T11:33:59.568Z,16
2023-01-28T11:35:00.165Z,16
2023-01-28T11:36:00.834Z,16
2023-01-28T11:37:01.449Z,12
2023-01-28T11:38:02.040Z,12
2023-01-28T11:39:03.498Z,12
2023-01-28T11:40:04.095Z,12
2023-01-28T11:41:04.690Z,12
2023-01-28T11:42:05.282Z,12
2023-01-28T11:43:05.873Z,12
2023-01-28T11:44:06.519Z,12
2023-01-28T11:45:07.186Z,16
2023-01-28T11:46:07.977Z,16
2023-01-28T11:47:08.593Z,16
2023-01-28T11:48:09.209Z,16
2023-01-28T11:49:09.801Z,16
2023-01-28T11:50:10.402Z,16
2023-01-28T11:51:10.996Z,16
2023-01-28T11:52:12.495Z,16
2023-01-28T11:53:14.417Z,16
2023-01-28T11:54:14.690Z,16
2023-01-28T11:55:15.334Z,16
2023-01-28T11:56:16.081Z,16
2023-01-28T11:57:16.673Z,16
2023-01-28T11:58:17.329Z,16
2023-01-28T11:59:17.926Z,16
2023-01-28T12:00:18.929Z,16
2023-01-28T12:01:19.836Z,16
2023-01-28T12:02:20.484Z,16
2023-01-28T12:03:21.088Z,16
2023-01-28T12:04:21.863Z,16
2023-01-28T12:05:22.456Z,16
2023-01-28T12:06:23.057Z,16
2023-01-28T12:07:23.692Z,16
2023-01-28T12:08:24.297Z,16
2023-01-28T12:09:24.891Z,16
2023-01-28T12:10:25.543Z,16
2023-01-28T12:11:26.137Z,16
2023-01-28T12:12:26.740Z,16
2023-01-28T12:13:27.340Z,12
2023-01-28T12:14:27.933Z,12
2023-01-28T12:15:28.534Z,12
2023-01-28T12:17:44.611Z,12
2023-01-28T12:18:45.204Z,12
2023-01-28T12:19:45.818Z,12
2023-01-28T12:20:46.392Z,12
2023-01-28T12:21:46.989Z,12
2023-01-28T12:22:47.582Z,12
2023-01-28T12:23:48.189Z,12
2023-01-28T12:24:48.831Z,12
2023-01-28T12:25:49.431Z,12
2023-01-28T12:26:50.024Z,12
2023-01-28T12:27:50.627Z,12
2023-01-28T12:28:51.275Z,12
2023-01-28T12:29:51.881Z,12
2023-01-28T12:30:52.487Z,12
2023-01-28T12:31:53.171Z,12
2023-01-28T12:32:53.830Z,12
2023-01-28T12:33:54.480Z,12
2023-01-28T12:34:55.926Z,12
2023-01-28T12:35:56.516Z,12
2023-01-28T12:36:57.121Z,12
2023-01-28T12:37:57.707Z,12
2023-01-28T12:38:58.363Z,12
2023-01-28T12:39:58.960Z,12
2023-01-28T12:40:59.581Z,12
2023-01-28T12:42:00.269Z,12
2023-01-28T12:43:00.912Z,12
2023-01-28T12:44:01.537Z,12
2023-01-28T12:45:02.966Z,16
2023-01-28T12:46:03.615Z,16
2023-01-28T12:47:04.496Z,16
2023-01-28T12:48:05.078Z,16
2023-01-28T12:49:05.669Z,16
2023-01-28T12:50:06.265Z,16
2023-01-28T12:51:06.864Z,16
2023-01-28T12:52:07.467Z,16
2023-01-28T12:53:08.060Z,16
2023-01-28T12:54:08.658Z,16
2023-01-28T12:55:09.273Z,16
2023-01-28T12:56:09.851Z,16
2023-01-28T12:57:10.445Z,16
2023-01-28T12:58:11.040Z,16
2023-01-28T12:59:11.643Z,16
2023-01-28T13:00:12.247Z,16
2023-01-28T13:01:12.839Z,16
2023-01-28T13:02:13.473Z,12
2023-01-28T13:03:14.104Z,16
2023-01-28T13:04:14.699Z,12
2023-01-28T13:05:15.295Z,12
2023-01-28T13:06:15.893Z,12
2023-01-28T13:07:16.584Z,12
2023-01-28T13:08:17.240Z,12
2023-01-28T13:09:17.839Z,12
2023-01-28T13:10:18.437Z,12
2023-01-28T13:11:19.039Z,12
2023-01-28T13:12:19.630Z,12
2023-01-28T13:13:20.227Z,12
2023-01-28T13:14:20.817Z,12
2023-01-28T13:15:21.411Z,12
2023-01-28T13:16:35.911Z,16
2023-01-28T13:17:23.597Z,16
2023-01-28T13:18:24.198Z,16
2023-01-28T13:19:24.793Z,16
2023-01-28T13:20:25.470Z,16
2023-01-28T13:21:26.402Z,16
2023-01-28T13:22:27.608Z,16
2023-01-28T13:23:28.202Z,16
2023-01-28T13:24:28.858Z,16
2023-01-28T13:25:29.478Z,16
2023-01-28T13:26:30.076Z,16
2023-01-28T13:27:30.676Z,16
2023-01-28T13:28:31.279Z,16
2023-01-28T13:29:31.868Z,16
2023-01-28T13:30:32.538Z,16
2023-01-28T13:31:33.145Z,16
2023-01-28T13:32:33.830Z,16
2023-01-28T13:33:35.289Z,16
2023-01-28T13:34:35.886Z,16
2023-01-28T13:35:36.535Z,16
2023-01-28T13:36:37.129Z,16
2023-01-28T13:37:37.791Z,16
2023-01-28T13:38:38.385Z,16
2023-01-28T13:39:38.979Z,16
2023-01-28T13:40:39.593Z,16
2023-01-28T13:41:40.246Z,16
2023-01-28T13:42:40.837Z,16
2023-01-28T13:43:41.433Z,16
2023-01-28T13:44:42.037Z,16
2023-01-28T13:45:42.666Z,16
2023-01-28T13:46:43.343Z,16
2023-01-28T13:47:43.976Z,12
2023-01-28T13:48:44.582Z,12
2023-01-28T13:49:45.181Z,12
2023-01-28T13:50:45.853Z,12
2023-01-28T13:51:46.452Z,16
2023-01-28T13:52:47.047Z,16
2023-01-28T13:53:47.639Z,16
2023-01-28T13:54:48.244Z,16
2023-01-28T13:55:48.844Z,16
2023-01-28T13:56:49.505Z,16
2023-01-28T13:57:50.103Z,16
2023-01-28T13:58:50.705Z,16
2023-01-28T13:59:51.305Z,16
2023-01-28T14:00:51.898Z,16
2023-01-28T14:01:52.500Z,16
2023-01-28T14:02:53.149Z,16
2023-01-28T14:03:53.742Z,16
2023-01-28T14:04:54.347Z,20
2023-01-28T14:05:55.059Z,16
2023-01-28T14:06:55.679Z,20
2023-01-28T14:07:56.262Z,20
2023-01-28T14:08:56.865Z,20
2023-01-28T14:09:57.470Z,24
2023-01-28T14:10:58.067Z,24
2023-01-28T14:11:58.657Z,24
2023-01-28T14:12:59.259Z,28
2023-01-28T14:13:59.872Z,32
2023-01-28T14:15:00.468Z,32
2023-01-28T14:16:01.153Z,32
2023-01-28T14:17:01.772Z,36
2023-01-28T14:18:02.355Z,40
2023-01-28T14:19:02.952Z,36
2023-01-28T14:20:03.555Z,40
2023-01-28T14:21:04.157Z,40
2023-01-28T14:22:04.748Z,44
2023-01-28T14:23:05.354Z,44
2023-01-28T14:24:06.001Z,48
2023-01-28T14:25:06.605Z,48
2023-01-28T14:26:07.227Z,48
2023-01-28T14:27:07.818Z,48
2023-01-28T14:28:08.395Z,56
2023-01-28T14:29:08.989Z,56
2023-01-28T14:30:09.581Z,60
2023-01-28T14:31:10.345Z,60
2023-01-28T14:32:11.802Z,56
2023-01-28T14:33:12.439Z,60
2023-01-28T14:34:13.032Z,56
2023-01-28T14:35:14.125Z,56
2023-01-28T14:36:14.954Z,40
2023-01-28T14:37:15.599Z,44
2023-01-28T14:38:16.250Z,40
2023-01-28T14:39:16.845Z,40
2023-01-28T14:40:17.854Z,40
2023-01-28T14:41:18.715Z,40
2023-01-28T14:42:19.306Z,40
2023-01-28T14:43:19.910Z,40
2023-01-28T14:44:20.662Z,40
2023-01-28T14:45:21.261Z,40
2023-01-28T14:46:21.886Z,40
2023-01-28T14:47:22.482Z,40
2023-01-28T14:48:23.123Z,40
2023-01-28T14:49:23.786Z,40